createdAt,value
2022-12-03T00:00:14.131Z,-0.55
2022-12-03T00:02:42.644Z,-0.53
2022-12-03T00:05:12.286Z,-0.79
2022-12-03T00:07:40.988Z,-0.75
2022-12-03T00:10:09.871Z,-0.61
2022-12-03T00:12:37.669Z,-0.58
2022-12-03T00:15:06.410Z,-0.69
2022-12-03T00:17:36.360Z,-0.62
2022-12-03T00:20:05.009Z,-0.72
2022-12-03T00:22:34.198Z,-0.53
2022-12-03T00:25:02.034Z,-0.54
2022-12-03T00:31:30.406Z,-0.54
2022-12-03T00:33:58.385Z,-0.62
2022-12-03T00:36:26.354Z,-0.65
2022-12-03T00:38:55.463Z,-0.52
2022-12-03T00:41:23.267Z,-0.62
2022-12-03T00:43:51.088Z,-0.65
2022-12-03T00:46:21.620Z,-0.68
2022-12-03T00:48:49.801Z,-0.62
2022-12-03T00:51:17.669Z,-0.70
2022-12-03T00:53:45.526Z,-0.76
2022-12-03T00:56:14.773Z,-0.75
2022-12-03T00:58:42.579Z,-0.76
2022-12-03T01:01:10.347Z,-0.81
2022-12-03T01:03:38.140Z,-0.77
2022-12-03T01:06:06.234Z,-0.61
2022-12-03T01:08:34.069Z,-0.67
2022-12-03T01:11:02.043Z,-0.60
2022-12-03T01:13:31.471Z,-0.61
2022-12-03T01:15:59.599Z,-0.76
2022-12-03T01:18:27.567Z,-0.58
2022-12-03T01:20:55.513Z,-0.47
2022-12-03T01:23:23.393Z,-0.42
2022-12-03T01:25:51.335Z,-0.40
2022-12-03T01:28:19.134Z,-0.39
2022-12-03T01:31:11.518Z,-0.69
2022-12-03T01:33:39.472Z,-0.57
2022-12-03T01:36:07.807Z,-0.67
2022-12-03T01:38:35.781Z,-0.62
2022-12-03T01:42:09.558Z,-0.68
2022-12-03T01:44:39.758Z,-0.55
2022-12-03T01:47:14.732Z,-0.41
2022-12-03T01:49:45.302Z,-0.29
2022-12-03T01:52:15.232Z,-0.31
2022-12-03T01:54:47.973Z,-0.37
2022-12-03T01:57:22.681Z,-0.45
2022-12-03T01:59:51.063Z,-0.73
2022-12-03T02:02:23.111Z,-0.71
2022-12-03T02:04:53.064Z,-0.57
2022-12-03T02:07:24.221Z,-0.46
2022-12-03T02:09:52.436Z,-0.53
2022-12-03T02:12:24.083Z,-0.47
2022-12-03T02:14:53.751Z,-0.54
2022-12-03T02:17:26.633Z,-0.71
2022-12-03T02:19:55.258Z,-0.60
2022-12-03T02:22:31.762Z,-0.63
2022-12-03T02:25:10.541Z,-0.60
2022-12-03T02:27:38.345Z,-0.68
2022-12-03T02:30:07.734Z,-0.66
2022-12-03T02:32:35.781Z,-0.60
2022-12-03T02:35:03.609Z,-0.58
2022-12-03T02:37:35.768Z,-0.52
2022-12-03T02:40:07.849Z,-0.47
2022-12-03T02:42:37.394Z,-0.41
2022-12-03T02:45:10.272Z,-0.42
2022-12-03T02:47:42.443Z,-0.52
2022-12-03T02:50:12.503Z,-0.67
2022-12-03T02:52:40.891Z,-0.67
2022-12-03T02:55:10.335Z,-0.57
2022-12-03T02:57:40.871Z,-0.57
2022-12-03T03:00:11.602Z,-0.50
2022-12-03T03:02:41.700Z,-0.51
2022-12-03T03:05:12.524Z,-0.59
2022-12-03T03:07:41.867Z,-0.53
2022-12-03T03:10:13.571Z,-0.46
2022-12-03T03:12:43.675Z,-0.50
2022-12-03T03:15:12.840Z,-0.64
2022-12-03T03:17:43.594Z,-0.65
2022-12-03T03:20:13.076Z,-0.60
2022-12-03T03:22:43.856Z,-0.65
2022-12-03T03:25:15.224Z,-0.76
2022-12-03T03:27:45.780Z,-0.82
2022-12-03T03:30:15.278Z,-0.72
2022-12-03T03:32:45.012Z,-0.61
2022-12-03T03:35:15.570Z,-0.64
2022-12-03T03:37:43.688Z,-0.60
2022-12-03T03:40:12.757Z,-0.61
2022-12-03T03:42:40.897Z,-0.54
2022-12-03T03:45:11.146Z,-0.40
2022-12-03T03:47:39.187Z,-0.40
2022-12-03T03:50:10.025Z,-0.49
2022-12-03T03:52:38.934Z,-0.56
2022-12-03T03:55:07.965Z,-0.70
2022-12-03T03:57:36.023Z,-0.54
2022-12-03T04:00:05.970Z,-0.56
2022-12-03T04:02:40.111Z,-0.54
2022-12-03T04:05:09.007Z,-0.57
2022-12-03T04:07:36.798Z,-0.63
2022-12-03T04:10:25.647Z,-0.60
2022-12-03T04:13:24.129Z,-0.53
2022-12-03T04:15:51.812Z,-0.65
2022-12-03T04:18:37.335Z,-0.66
2022-12-03T04:21:22.742Z,-0.84
2022-12-03T04:23:50.609Z,-0.75
2022-12-03T04:26:36.013Z,-0.64
2022-12-03T04:29:05.569Z,-0.59
2022-12-03T04:31:50.523Z,-0.62
2022-12-03T04:34:36.407Z,-0.56
2022-12-03T04:37:04.570Z,-0.40
2022-12-03T04:39:32.523Z,-0.40
2022-12-03T04:42:00.251Z,-0.33
2022-12-03T04:44:36.795Z,-0.37
2022-12-03T04:47:08.234Z,-0.41
2022-12-03T04:49:37.614Z,-0.54
2022-12-03T04:52:05.877Z,-0.53
2022-12-03T04:54:34.010Z,-0.91
2022-12-03T04:57:02.091Z,-0.82
2022-12-03T04:59:34.521Z,-0.78
2022-12-03T05:02:02.532Z,-0.80
2022-12-03T05:04:31.092Z,-0.85
2022-12-03T05:06:58.973Z,-0.81
2022-12-03T05:09:27.127Z,-0.92
2022-12-03T05:11:58.040Z,-0.85
2022-12-03T05:14:26.116Z,-0.82
2022-12-03T05:17:00.799Z,-0.83
2022-12-03T05:19:42.577Z,-0.81
2022-12-03T05:22:10.602Z,-0.72
2022-12-03T05:24:38.401Z,-0.74
2022-12-03T05:27:09.815Z,-0.98
2022-12-03T05:29:37.746Z,-0.75
2022-12-03T05:32:10.695Z,-0.65
2022-12-03T05:34:38.743Z,-0.65
2022-12-03T05:37:06.904Z,-0.85
2022-12-03T05:39:37.242Z,-0.98
2022-12-03T05:46:07.963Z,-0.94
2022-12-03T05:48:40.266Z,-0.93
2022-12-03T05:51:08.652Z,-0.71
2022-12-03T05:53:42.360Z,-0.64
2022-12-03T05:56:23.290Z,-0.76
2022-12-03T05:58:51.543Z,-1.03
2022-12-03T06:01:21.084Z,-0.95
2022-12-03T06:03:50.286Z,-1.02
2022-12-03T06:06:26.943Z,-0.96
2022-12-03T06:08:55.970Z,-1.12
2022-12-03T06:11:25.164Z,-1.07
2022-12-03T06:13:53.254Z,-1.10
2022-12-03T06:16:21.095Z,-1.28
2022-12-03T06:18:50.592Z,-1.14
2022-12-03T06:21:18.639Z,-1.08
2022-12-03T06:23:46.388Z,-1.22
2022-12-03T06:26:14.938Z,-1.32
2022-12-03T06:28:46.219Z,-1.19
2022-12-03T06:31:14.364Z,-1.18
2022-12-03T06:33:42.177Z,-0.98
2022-12-03T06:36:11.403Z,-1.00
2022-12-03T06:38:39.375Z,-1.01
2022-12-03T06:41:07.114Z,-0.98
2022-12-03T06:43:35.009Z,-0.95
2022-12-03T06:46:02.939Z,-0.87
2022-12-03T06:48:30.970Z,-1.10
2022-12-03T06:50:58.763Z,-1.11
2022-12-03T06:53:28.383Z,-0.96
2022-12-03T06:55:58.253Z,-1.04
2022-12-03T06:58:26.155Z,-1.06
2022-12-03T07:00:54.203Z,-1.14
2022-12-03T07:03:22.055Z,-1.28
2022-12-03T07:05:50.309Z,-1.27
2022-12-03T07:08:18.200Z,-1.22
2022-12-03T07:10:47.429Z,-1.11
2022-12-03T07:13:15.246Z,-1.13
2022-12-03T07:15:43.013Z,-1.21
2022-12-03T07:18:10.905Z,-1.18
2022-12-03T07:20:38.828Z,-1.27
2022-12-03T07:23:06.722Z,-1.43
2022-12-03T07:25:34.791Z,-1.22
2022-12-03T07:28:04.872Z,-1.09
2022-12-03T07:30:32.644Z,-1.08
2022-12-03T07:33:00.669Z,-1.11
2022-12-03T07:35:28.468Z,-1.19
2022-12-03T07:37:56.373Z,-1.16
2022-12-03T07:40:24.134Z,-1.02
2022-12-03T07:42:51.946Z,-1.01
2022-12-03T07:45:21.070Z,-1.17
2022-12-03T07:47:48.941Z,-1.25
2022-12-03T07:50:17.652Z,-1.27
2022-12-03T07:52:45.557Z,-1.24
2022-12-03T07:55:15.497Z,-1.26
2022-12-03T07:57:43.276Z,-1.15
2022-12-03T08:00:12.896Z,-1.10
2022-12-03T08:02:42.179Z,-1.19
2022-12-03T08:05:10.137Z,-1.17
2022-12-03T08:07:37.987Z,-1.19
2022-12-03T08:10:07.500Z,-1.20
2022-12-03T08:12:42.215Z,-1.16
2022-12-03T08:15:15.542Z,-1.04
2022-12-03T08:17:52.689Z,-0.89
2022-12-03T08:20:22.226Z,-0.76
2022-12-03T08:22:52.553Z,-1.03
2022-12-03T08:25:23.159Z,-0.92
2022-12-03T08:27:52.381Z,-1.11
2022-12-03T08:30:21.114Z,-1.06
2022-12-03T08:32:50.495Z,-0.81
2022-12-03T08:35:23.487Z,-0.88
2022-12-03T08:37:58.823Z,-1.00
2022-12-03T08:40:34.502Z,-1.01
2022-12-03T08:43:02.588Z,-1.10
2022-12-03T08:45:41.018Z,-1.10
2022-12-03T08:48:29.253Z,-0.92
2022-12-03T08:50:58.947Z,-0.88
2022-12-03T08:53:33.032Z,-0.96
2022-12-03T08:56:04.344Z,-0.93
2022-12-03T08:58:39.435Z,-0.96
2022-12-03T09:01:30.131Z,-0.77
2022-12-03T09:04:06.921Z,-0.86
2022-12-03T09:06:34.673Z,-0.83
2022-12-03T09:09:06.503Z,-0.77
2022-12-03T09:11:59.634Z,-0.59
2022-12-03T09:14:28.897Z,-0.42
2022-12-03T09:16:57.296Z,-0.55
2022-12-03T09:19:30.905Z,-0.54
2022-12-03T09:22:07.673Z,-0.69
2022-12-03T09:24:35.755Z,-0.67
2022-12-03T09:27:03.489Z,-0.32
2022-12-03T09:29:31.261Z,-0.02
2022-12-03T09:31:59.177Z,-0.03
2022-12-03T09:34:29.754Z,0.04
2022-12-03T09:36:57.488Z,0.17
2022-12-03T09:39:28.441Z,0.13
2022-12-03T09:41:57.201Z,0.03
2022-12-03T09:44:25.172Z,-0.13
2022-12-03T09:47:00.032Z,-0.37
2022-12-03T09:49:32.933Z,-0.57
2022-12-03T09:52:04.117Z,-0.55
2022-12-03T09:54:33.423Z,-0.59
2022-12-03T09:57:04.541Z,-0.64
2022-12-03T09:59:35.269Z,-0.52
2022-12-03T10:02:03.678Z,-0.38
2022-12-03T10:04:33.261Z,-0.57
2022-12-03T10:07:01.666Z,-0.51
2022-12-03T10:09:31.534Z,-0.56
2022-12-03T10:12:00.887Z,-0.36
2022-12-03T10:14:29.560Z,-0.51
2022-12-03T10:16:57.851Z,-0.53
2022-12-03T10:19:28.871Z,-0.61
2022-12-03T10:22:00.774Z,-0.68
2022-12-03T10:24:30.913Z,-0.78
2022-12-03T10:27:01.540Z,-0.90
2022-12-03T10:33:32.881Z,-0.71
2022-12-03T10:36:20.631Z,-0.60
2022-12-03T10:39:08.229Z,-0.75
2022-12-03T10:41:37.885Z,-0.73
2022-12-03T10:44:20.573Z,-0.45
2022-12-03T10:47:07.062Z,-0.56
2022-12-03T10:53:29.078Z,-0.58
2022-12-03T10:56:01.940Z,-0.39
2022-12-03T10:58:32.152Z,-0.36
2022-12-03T11:01:03.290Z,-0.46
2022-12-03T11:03:35.282Z,-0.32
2022-12-03T11:06:03.854Z,-0.37
2022-12-03T11:08:35.428Z,-0.45
2022-12-03T11:11:07.834Z,-0.43
2022-12-03T11:13:48.203Z,-0.50
2022-12-03T11:17:08.296Z,-0.34
2022-12-03T11:19:50.881Z,-0.43
2022-12-03T11:22:29.673Z,-0.13
2022-12-03T11:25:33.545Z,-0.26
2022-12-03T11:28:47.183Z,-0.29
2022-12-03T11:31:38.051Z,-0.11
2022-12-03T11:34:48.259Z,-0.05
2022-12-03T11:37:27.408Z,-0.18
2022-12-03T11:40:26.688Z,-0.23
2022-12-03T11:42:54.790Z,-0.51
2022-12-03T11:49:34.572Z,-0.39
2022-12-03T11:52:12.592Z,-0.29
2022-12-03T11:54:40.619Z,-0.41
2022-12-03T11:57:30.868Z,-0.24
2022-12-03T12:00:00.814Z,-0.14
2022-12-03T12:02:29.131Z,-0.14
2022-12-03T12:05:33.641Z,-0.23
2022-12-03T12:08:03.056Z,-0.31
2022-12-03T12:10:55.147Z,-0.28
2022-12-03T12:13:44.356Z,-0.14
2022-12-03T12:16:12.838Z,-0.32
2022-12-03T12:18:42.335Z,-0.23
2022-12-03T12:21:43.599Z,-0.41
2022-12-03T12:24:36.226Z,-0.40
2022-12-03T12:27:07.402Z,-0.24
2022-12-03T12:29:35.852Z,-0.10
2022-12-03T12:32:45.412Z,-0.11
2022-12-03T12:35:19.663Z,-0.13
2022-12-03T12:37:58.931Z,-0.22
2022-12-03T12:40:37.457Z,-0.38
2022-12-03T12:43:24.134Z,-0.38
2022-12-03T12:45:57.200Z,-0.24
2022-12-03T12:48:27.559Z,-0.24
2022-12-03T12:51:01.220Z,-0.14
2022-12-03T12:53:33.058Z,0.04
2022-12-03T12:56:03.091Z,-0.16
2022-12-03T12:58:33.499Z,-0.28
2022-12-03T13:01:07.921Z,-0.42
2022-12-03T13:03:43.859Z,-0.17
2022-12-03T13:06:30.442Z,-0.18
2022-12-03T13:09:01.439Z,-0.51
2022-12-03T13:11:37.028Z,-0.58
2022-12-03T13:14:20.942Z,-0.40
2022-12-03T13:17:10.657Z,-0.46
2022-12-03T13:20:02.036Z,-0.51
2022-12-03T13:29:37.705Z,-0.33
2022-12-03T13:32:15.702Z,-0.18
2022-12-03T13:34:44.847Z,-0.26
2022-12-03T13:37:15.957Z,-0.28
2022-12-03T13:39:54.280Z,-0.58
2022-12-03T13:42:56.187Z,-0.47
2022-12-03T13:45:32.653Z,-0.54
2022-12-03T13:48:05.845Z,-0.41
2022-12-03T13:50:40.147Z,-0.36
2022-12-03T13:53:17.377Z,-0.56
2022-12-03T13:55:48.097Z,-0.54
2022-12-03T13:58:27.042Z,-0.45
2022-12-03T14:00:58.616Z,-0.57
2022-12-03T14:03:26.642Z,-0.56
2022-12-03T14:05:54.636Z,-0.62
2022-12-03T14:08:22.685Z,-0.57
2022-12-03T14:10:53.169Z,-0.62
2022-12-03T14:13:25.104Z,-0.49
2022-12-03T14:15:53.052Z,-0.43
2022-12-03T14:18:22.584Z,-0.50
2022-12-03T14:20:50.389Z,-0.43
2022-12-03T14:23:18.501Z,-0.39
2022-12-03T14:25:46.481Z,-0.32
2022-12-03T14:28:16.489Z,-0.37
2022-12-03T14:30:44.520Z,-0.16
2022-12-03T14:33:12.507Z,-0.34
2022-12-03T14:38:23.654Z,-0.26
2022-12-03T14:40:51.763Z,-0.19
2022-12-03T14:43:24.108Z,-0.47
2022-12-03T14:45:53.493Z,-0.44
2022-12-03T14:48:24.868Z,-0.52
2022-12-03T14:50:59.717Z,-0.37
2022-12-03T14:53:28.491Z,-0.29
2022-12-03T14:55:59.005Z,-0.19
2022-12-03T14:58:28.166Z,-0.14
2022-12-03T15:00:59.424Z,-0.03
2022-12-03T15:03:38.678Z,-0.31
2022-12-03T15:06:09.936Z,-0.33
2022-12-03T15:08:41.251Z,-0.35
2022-12-03T15:11:09.781Z,-0.35
2022-12-03T15:13:38.514Z,-0.57
2022-12-03T15:16:12.851Z,-0.36
2022-12-03T15:19:00.181Z,-0.30
2022-12-03T15:21:32.678Z,-0.24
2022-12-03T15:24:02.265Z,-0.34
2022-12-03T15:26:31.005Z,-0.34
2022-12-03T15:28:58.955Z,-0.41
2022-12-03T15:31:26.917Z,-0.45
2022-12-03T15:33:54.795Z,-0.42
2022-12-03T15:36:23.943Z,-0.20
2022-12-03T15:38:54.359Z,-0.28
2022-12-03T15:41:24.290Z,-0.30
2022-12-03T15:43:54.088Z,-0.18
2022-12-03T15:46:22.373Z,-0.12
2022-12-03T15:48:50.333Z,-0.10
2022-12-03T15:51:18.357Z,-0.10
2022-12-03T15:53:46.232Z,-0.02
2022-12-03T15:56:15.520Z,0.04
2022-12-03T15:58:43.705Z,0.11
2022-12-03T16:01:13.547Z,0.03
2022-12-03T16:03:41.755Z,0.07
2022-12-03T16:06:10.101Z,-0.02
2022-12-03T16:08:37.955Z,-0.06
2022-12-03T16:11:06.156Z,-0.13
2022-12-03T16:13:35.732Z,-0.28
2022-12-03T16:16:03.640Z,-0.11
2022-12-03T16:18:32.128Z,-0.01
2022-12-03T16:20:59.981Z,0.11
2022-12-03T16:23:27.801Z,0.06
2022-12-03T16:25:55.994Z,-0.06
2022-12-03T16:28:23.900Z,-0.12
2022-12-03T16:30:53.587Z,-0.05
2022-12-03T16:33:27.202Z,-0.09
2022-12-03T16:36:01.091Z,-0.17
2022-12-03T16:38:35.741Z,-0.28
2022-12-03T16:41:03.794Z,-0.20
2022-12-03T16:43:57.146Z,-0.14
2022-12-03T16:46:26.854Z,-0.32
2022-12-03T16:48:56.483Z,-0.45
2022-12-03T16:51:24.866Z,-0.43
2022-12-03T16:53:52.959Z,-0.37
2022-12-03T16:56:20.991Z,-0.36
2022-12-03T16:58:48.826Z,-0.18
2022-12-03T17:01:18.430Z,-0.25
2022-12-03T17:03:50.405Z,-0.26
2022-12-03T17:06:22.144Z,-0.20
2022-12-03T17:08:50.269Z,-0.25
2022-12-03T17:11:18.893Z,-0.31
2022-12-03T17:13:47.138Z,-0.24
2022-12-03T17:16:15.191Z,-0.21
2022-12-03T17:18:43.204Z,-0.20
2022-12-03T17:21:12.325Z,-0.02
2022-12-03T17:23:40.214Z,-0.10
2022-12-03T17:26:08.112Z,-0.10
2022-12-03T17:28:35.854Z,-0.19
2022-12-03T17:31:06.362Z,-0.06
2022-12-03T17:33:34.485Z,-0.03
2022-12-03T17:36:04.196Z,-0.03
2022-12-03T17:38:39.002Z,0.05
2022-12-03T17:41:08.452Z,-0.02
2022-12-03T17:43:36.482Z,0.07
2022-12-03T17:46:05.119Z,0.15
2022-12-03T17:48:35.677Z,0.15
2022-12-03T17:51:05.828Z,-0.01
2022-12-03T17:53:37.879Z,0.12
2022-12-03T17:56:05.968Z,0.04
2022-12-03T17:58:33.815Z,0.11
2022-12-03T18:01:03.172Z,0.23
2022-12-03T18:03:31.491Z,0.26
2022-12-03T18:05:59.391Z,0.00
2022-12-03T18:08:27.235Z,0.07
2022-12-03T18:10:57.763Z,0.16
2022-12-03T18:13:27.214Z,0.20
2022-12-03T18:16:04.762Z,0.09
2022-12-03T18:18:32.703Z,0.00
2022-12-03T18:21:02.164Z,0.12
2022-12-03T18:23:30.304Z,-0.02
2022-12-03T18:25:59.718Z,0.06
2022-12-03T18:28:27.881Z,0.00
2022-12-03T18:30:56.088Z,-0.05
2022-12-03T18:33:24.035Z,-0.12
2022-12-03T18:35:54.895Z,-0.23
2022-12-03T18:38:27.036Z,-0.15
2022-12-03T18:40:57.344Z,-0.15
2022-12-03T18:43:29.095Z,0.02
2022-12-03T18:45:57.185Z,0.14
2022-12-03T18:48:26.030Z,0.22
2022-12-03T18:50:54.747Z,0.19
2022-12-03T18:53:22.571Z,0.29
2022-12-03T18:55:50.575Z,0.29
2022-12-03T18:58:19.288Z,0.06
2022-12-03T19:00:48.613Z,0.17
2022-12-03T19:03:16.710Z,0.17
2022-12-03T19:05:44.514Z,0.16
2022-12-03T19:08:14.972Z,0.24
2022-12-03T19:10:44.490Z,0.22
2022-12-03T19:13:12.891Z,-0.02
2022-12-03T19:15:40.662Z,0.15
2022-12-03T19:18:10.112Z,0.13
2022-12-03T19:20:41.134Z,0.24
2022-12-03T19:23:09.391Z,0.28
2022-12-03T19:25:37.504Z,0.32
2022-12-03T19:28:05.693Z,0.12
2022-12-03T19:30:33.577Z,0.16
2022-12-03T19:33:01.578Z,0.18
2022-12-03T19:35:33.571Z,0.31
2022-12-03T19:38:01.404Z,0.28
2022-12-03T19:40:29.125Z,0.33
2022-12-03T19:42:56.945Z,0.41
2022-12-03T19:45:27.732Z,0.39
2022-12-03T19:47:55.745Z,0.47
2022-12-03T19:50:23.850Z,0.34
2022-12-03T19:52:53.104Z,0.32
2022-12-03T19:55:20.977Z,0.18
2022-12-03T19:57:49.108Z,0.24
2022-12-03T20:00:17.871Z,0.34
2022-12-03T20:02:45.871Z,0.36
2022-12-03T20:05:13.826Z,0.41
2022-12-03T20:07:41.911Z,0.50
2022-12-03T20:10:11.974Z,0.25
2022-12-03T20:12:40.061Z,0.31
2022-12-03T20:15:08.543Z,0.33
2022-12-03T20:17:36.765Z,0.09
2022-12-03T20:20:06.453Z,0.21
2022-12-03T20:22:34.336Z,0.23
2022-12-03T20:25:07.357Z,0.20
2022-12-03T20:27:36.777Z,0.18
2022-12-03T20:30:08.688Z,0.30
2022-12-03T20:32:42.006Z,0.32
2022-12-03T20:35:13.085Z,0.31
2022-12-03T20:37:41.016Z,0.42
2022-12-03T20:40:11.540Z,0.36
2022-12-03T20:42:43.047Z,0.40
2022-12-03T20:45:14.185Z,0.45
2022-12-03T20:47:42.329Z,0.39
2022-12-03T20:50:10.591Z,0.47
2022-12-03T20:52:38.851Z,0.41
2022-12-03T20:55:07.546Z,0.38
2022-12-03T20:57:35.649Z,0.45
2022-12-03T21:00:06.114Z,0.46
2022-12-03T21:02:34.179Z,0.48
2022-12-03T21:05:02.125Z,0.48
2022-12-03T21:07:30.213Z,0.30
2022-12-03T21:09:58.331Z,0.30
2022-12-03T21:12:26.906Z,0.28
2022-12-03T21:15:00.860Z,0.28
2022-12-03T21:17:30.050Z,0.25
2022-12-03T21:19:58.307Z,0.28
2022-12-03T21:22:27.293Z,0.25
2022-12-03T21:24:55.301Z,0.13
2022-12-03T21:27:23.120Z,0.19
2022-12-03T21:29:51.205Z,0.11
2022-12-03T21:32:19.484Z,0.09
2022-12-03T21:34:48.733Z,0.08
2022-12-03T21:37:16.669Z,-0.01
2022-12-03T21:39:44.798Z,0.12
2022-12-03T21:42:35.094Z,0.04
2022-12-03T21:45:01.094Z,-0.01
2022-12-03T21:47:36.960Z,0.04
2022-12-03T21:50:11.189Z,0.03
2022-12-03T21:52:39.251Z,-0.02
2022-12-03T21:55:07.822Z,0.03
2022-12-03T21:57:36.957Z,0.08
2022-12-03T22:00:07.704Z,0.05
2022-12-03T22:02:39.428Z,0.10
2022-12-03T22:05:10.433Z,0.16
2022-12-03T22:07:40.116Z,0.15
2022-12-03T22:10:10.773Z,0.11
2022-12-03T22:12:40.907Z,0.14
2022-12-03T22:15:14.892Z,0.28
2022-12-03T22:17:46.317Z,0.13
2022-12-03T22:20:16.362Z,-0.01
2022-12-03T22:22:44.683Z,0.06
2022-12-03T22:25:15.862Z,0.06
2022-12-03T22:27:43.947Z,0.17
2022-12-03T22:30:12.601Z,0.12
2022-12-03T22:32:40.617Z,0.16
2022-12-03T22:35:09.216Z,0.16
2022-12-03T22:37:38.539Z,0.19
2022-12-03T22:40:07.620Z,0.16
2022-12-03T22:42:35.649Z,0.15
2022-12-03T22:45:03.685Z,0.24
2022-12-03T22:47:31.909Z,0.10
2022-12-03T22:49:59.702Z,0.12
2022-12-03T22:52:28.618Z,0.11
2022-12-03T22:54:57.906Z,0.06
2022-12-03T22:57:25.917Z,0.08
2022-12-03T22:59:54.104Z,0.11
2022-12-03T23:02:22.262Z,0.13
2022-12-03T23:04:50.379Z,0.25
2022-12-03T23:07:19.366Z,0.26
2022-12-03T23:09:47.170Z,-0.02
2022-12-03T23:12:16.470Z,-0.01
2022-12-03T23:14:47.013Z,0.13
2022-12-03T23:17:14.759Z,0.25
2022-12-03T23:19:42.667Z,0.10
2022-12-03T23:22:10.493Z,0.15
2022-12-03T23:24:38.395Z,-0.03
2022-12-03T23:27:06.339Z,0.10
2022-12-03T23:29:36.948Z,0.02
2022-12-03T23:32:04.958Z,0.13
2022-12-03T23:34:32.819Z,0.06
2022-12-03T23:37:00.705Z,0.09
2022-12-03T23:39:28.553Z,0.09
2022-12-03T23:41:56.454Z,-0.01
2022-12-03T23:44:24.880Z,0.07
2022-12-03T23:46:54.200Z,0.20
2022-12-03T23:49:21.949Z,0.12
2022-12-03T23:51:49.814Z,0.18
2022-12-03T23:54:17.661Z,0.23
2022-12-03T23:56:45.950Z,0.23
2022-12-03T23:59:13.731Z,0.26
